createdAt,value
2022-08-30T00:02:58.370Z,56.00
2022-08-30T00:05:24.934Z,55.90
2022-08-30T00:07:51.384Z,55.30
2022-08-30T00:10:17.821Z,55.60
2022-08-30T00:12:44.276Z,56.00
2022-08-30T00:15:10.762Z,55.50
2022-08-30T00:17:38.766Z,55.80
2022-08-30T00:20:05.221Z,55.50
2022-08-30T00:22:31.711Z,56.10
2022-08-30T00:24:58.180Z,56.20
2022-08-30T00:29:51.685Z,56.30
2022-08-30T00:32:18.125Z,55.70
2022-08-30T00:37:11.573Z,56.20
2022-08-30T00:39:38.014Z,56.40
2022-08-30T00:42:04.489Z,55.90
2022-08-30T00:44:30.926Z,56.00
2022-08-30T00:46:57.377Z,56.20
2022-08-30T00:49:23.837Z,56.20
2022-08-30T00:51:50.313Z,55.60
2022-08-30T00:54:16.769Z,55.50
2022-08-30T00:56:43.232Z,56.50
2022-08-30T01:01:36.731Z,56.00
2022-08-30T01:04:03.474Z,55.60
2022-08-30T01:06:32.633Z,55.60
2022-08-30T01:08:59.317Z,55.90
2022-08-30T01:11:25.766Z,55.30
2022-08-30T01:16:19.205Z,55.60
2022-08-30T01:18:46.002Z,55.40
2022-08-30T01:23:39.445Z,56.10
2022-08-30T01:26:07.164Z,56.20
2022-08-30T01:28:33.596Z,56.20
2022-08-30T01:31:00.100Z,55.50
2022-08-30T01:33:26.647Z,55.70
2022-08-30T01:38:20.074Z,55.60
2022-08-30T01:40:46.527Z,55.40
2022-08-30T01:43:13.018Z,56.30
2022-08-30T01:48:06.737Z,55.60
2022-08-30T01:50:33.294Z,55.60
2022-08-30T01:52:59.773Z,56.20
2022-08-30T01:55:26.252Z,55.80
2022-08-30T01:57:52.718Z,56.10
2022-08-30T02:00:19.161Z,56.00
2022-08-30T02:02:45.597Z,56.20
2022-08-30T02:05:12.031Z,56.00
2022-08-30T02:10:05.497Z,55.90
2022-08-30T02:12:31.932Z,55.20
2022-08-30T02:14:58.381Z,55.60
2022-08-30T02:19:51.847Z,55.30
2022-08-30T02:22:18.317Z,56.00
2022-08-30T02:27:11.781Z,55.70
2022-08-30T02:29:38.222Z,56.00
2022-08-30T02:32:04.760Z,55.50
2022-08-30T02:34:31.321Z,55.20
2022-08-30T02:36:57.761Z,56.10
2022-08-30T02:39:24.200Z,55.90
2022-08-30T02:41:50.646Z,56.50
2022-08-30T02:44:17.089Z,55.60
2022-08-30T02:49:32.630Z,56.20
2022-08-30T02:51:56.991Z,55.50
2022-08-30T02:54:23.435Z,55.40
2022-08-30T02:56:49.908Z,56.10
2022-08-30T03:01:43.381Z,55.30
2022-08-30T03:04:09.870Z,55.50
2022-08-30T03:06:36.325Z,56.00
2022-08-30T03:11:29.782Z,56.20
2022-08-30T03:13:56.264Z,55.50
2022-08-30T03:18:49.810Z,55.50
2022-08-30T03:21:16.354Z,55.50
2022-08-30T03:23:42.820Z,55.40
2022-08-30T03:28:36.252Z,55.20
2022-08-30T03:31:02.694Z,55.40
2022-08-30T03:33:29.141Z,55.20
2022-08-30T03:35:55.726Z,55.40
2022-08-30T03:40:49.214Z,55.50
2022-08-30T03:43:15.888Z,55.60
2022-08-30T03:45:42.493Z,56.10
2022-08-30T03:48:08.990Z,56.00
2022-08-30T03:50:35.464Z,55.50
2022-08-30T03:53:01.941Z,55.10
2022-08-30T03:57:55.436Z,55.40
2022-08-30T04:02:49.354Z,56.00
2022-08-30T04:05:16.434Z,55.10
2022-08-30T04:07:45.289Z,56.20
2022-08-30T04:10:11.748Z,55.60
2022-08-30T04:12:38.826Z,56.00
2022-08-30T04:15:05.379Z,55.90
2022-08-30T04:17:31.814Z,56.30
2022-08-30T04:19:58.270Z,55.20
2022-08-30T04:22:24.704Z,55.90
2022-08-30T04:24:51.166Z,56.30
2022-08-30T04:27:17.609Z,56.20
2022-08-30T04:29:44.060Z,55.30
2022-08-30T04:32:10.541Z,55.00
2022-08-30T04:34:37.005Z,55.90
2022-08-30T04:37:03.469Z,55.10
2022-08-30T04:39:30.688Z,55.70
2022-08-30T04:44:25.310Z,55.20
2022-08-30T04:46:51.867Z,56.20
2022-08-30T04:49:18.320Z,55.20
2022-08-30T04:51:44.760Z,55.10
2022-08-30T04:54:11.206Z,56.10
2022-08-30T04:56:37.649Z,56.00
2022-08-30T04:59:04.109Z,55.60
2022-08-30T05:01:30.557Z,55.50
2022-08-30T05:06:24.044Z,54.90
2022-08-30T05:08:50.472Z,55.30
2022-08-30T05:11:16.930Z,55.40
2022-08-30T05:13:43.387Z,55.50
2022-08-30T05:16:09.936Z,55.50
2022-08-30T05:18:36.417Z,55.20
2022-08-30T05:21:02.870Z,55.70
2022-08-30T05:23:29.317Z,55.50
2022-08-30T05:25:55.760Z,55.50
2022-08-30T05:28:26.059Z,55.20
2022-08-30T05:30:52.814Z,55.70
2022-08-30T05:33:19.266Z,55.20
2022-08-30T05:35:45.708Z,55.80
2022-08-30T05:40:39.209Z,55.80
2022-08-30T05:43:07.466Z,55.80
2022-08-30T05:45:33.905Z,55.20
2022-08-30T05:48:00.382Z,55.20
2022-08-30T05:50:26.826Z,56.00
2022-08-30T05:52:53.298Z,55.00
2022-08-30T05:55:19.856Z,55.50
2022-08-30T05:57:46.315Z,55.80
2022-08-30T06:00:12.765Z,55.20
2022-08-30T06:02:39.242Z,55.40
2022-08-30T06:05:05.772Z,54.40
2022-08-30T06:07:32.225Z,54.80
2022-08-30T06:09:58.685Z,54.40
2022-08-30T06:12:25.138Z,54.10
2022-08-30T06:14:51.580Z,54.70
2022-08-30T06:17:20.127Z,54.60
2022-08-30T06:19:46.594Z,54.00
2022-08-30T06:22:13.050Z,54.90
2022-08-30T06:24:56.478Z,54.60
2022-08-30T06:27:23.635Z,53.90
2022-08-30T06:32:17.081Z,53.70
2022-08-30T06:34:43.508Z,53.20
2022-08-30T06:37:09.958Z,53.60
2022-08-30T06:39:36.404Z,53.40
2022-08-30T06:42:02.846Z,53.70
2022-08-30T06:44:29.307Z,53.90
2022-08-30T06:49:23.649Z,54.10
2022-08-30T06:51:50.127Z,54.10
2022-08-30T06:54:18.034Z,54.20
2022-08-30T06:56:57.789Z,54.30
2022-08-30T07:01:52.414Z,54.20
2022-08-30T07:04:18.878Z,54.30
2022-08-30T07:06:45.333Z,54.70
2022-08-30T07:11:38.788Z,54.90
2022-08-30T07:14:05.272Z,54.40
2022-08-30T07:16:31.722Z,55.10
2022-08-30T07:18:58.178Z,55.20
2022-08-30T07:21:24.635Z,55.20
2022-08-30T07:23:53.439Z,55.30
2022-08-30T07:28:47.233Z,56.20
2022-08-30T07:33:45.763Z,55.50
2022-08-30T07:36:12.214Z,56.00
2022-08-30T07:38:38.682Z,55.20
2022-08-30T07:41:05.141Z,55.80
2022-08-30T07:43:31.588Z,55.20
2022-08-30T07:45:58.112Z,55.20
2022-08-30T07:48:24.610Z,55.50
2022-08-30T07:50:56.309Z,55.30
2022-08-30T07:53:24.090Z,55.80
2022-08-30T07:55:50.549Z,55.90
2022-08-30T07:58:17.220Z,57.00
2022-08-30T08:00:43.794Z,56.90
2022-08-30T08:03:10.256Z,56.40
2022-08-30T08:08:03.760Z,56.80
2022-08-30T08:10:30.220Z,56.10
2022-08-30T08:12:56.684Z,55.90
2022-08-30T08:15:23.138Z,56.50
2022-08-30T08:17:49.610Z,56.20
2022-08-30T08:20:16.057Z,56.20
2022-08-30T08:25:09.497Z,56.80
2022-08-30T08:27:35.971Z,56.90
2022-08-30T08:30:02.441Z,56.70
2022-08-30T08:32:28.882Z,56.00
2022-08-30T08:34:55.339Z,56.80
2022-08-30T08:37:21.828Z,55.90
2022-08-30T08:39:53.742Z,56.10
2022-08-30T08:42:20.199Z,55.90
2022-08-30T08:44:46.655Z,55.70
2022-08-30T08:49:40.532Z,56.90
2022-08-30T08:52:07.055Z,56.10
2022-08-30T08:57:00.513Z,56.50
2022-08-30T08:59:26.962Z,56.20
2022-08-30T09:01:53.462Z,56.10
2022-08-30T09:04:24.533Z,56.60
2022-08-30T09:09:17.994Z,55.80
2022-08-30T09:14:11.448Z,55.30
2022-08-30T09:16:40.438Z,55.40
2022-08-30T09:19:07.270Z,55.10
2022-08-30T09:21:34.181Z,55.10
2022-08-30T09:26:27.649Z,55.50
2022-08-30T09:31:21.149Z,55.90
2022-08-30T09:33:50.077Z,55.80
2022-08-30T09:36:16.517Z,55.00
2022-08-30T09:41:09.993Z,56.40
2022-08-30T09:43:36.438Z,55.90
2022-08-30T09:46:02.969Z,56.00
2022-08-30T09:48:30.084Z,56.20
2022-08-30T09:50:56.684Z,55.50
2022-08-30T09:53:23.722Z,55.20
2022-08-30T09:55:50.314Z,54.90
2022-08-30T09:58:16.965Z,55.20
2022-08-30T10:00:45.730Z,54.80
2022-08-30T10:03:12.166Z,55.70
2022-08-30T10:05:38.603Z,54.40
2022-08-30T10:08:05.443Z,55.70
2022-08-30T10:10:32.043Z,55.90
2022-08-30T10:12:58.486Z,55.90
2022-08-30T10:17:51.923Z,55.40
2022-08-30T10:22:46.063Z,55.40
2022-08-30T10:25:16.029Z,55.40
2022-08-30T10:27:42.757Z,54.40
2022-08-30T10:30:09.198Z,54.10
2022-08-30T10:35:02.645Z,53.90
2022-08-30T10:37:29.467Z,52.90
2022-08-30T10:39:56.421Z,53.70
2022-08-30T10:42:23.093Z,53.20
2022-08-30T10:44:49.541Z,52.90
2022-08-30T10:50:03.862Z,53.20
2022-08-30T10:52:30.422Z,53.00
2022-08-30T10:54:56.875Z,51.90
2022-08-30T10:57:24.139Z,52.10
2022-08-30T10:59:52.779Z,52.20
2022-08-30T11:02:19.221Z,52.30
2022-08-30T11:04:45.764Z,52.60
2022-08-30T11:07:12.228Z,51.70
2022-08-30T11:12:05.707Z,53.40
2022-08-30T11:16:59.454Z,53.40
2022-08-30T11:19:26.163Z,53.10
2022-08-30T11:21:52.657Z,53.00
2022-08-30T11:24:19.603Z,52.90
2022-08-30T11:26:46.135Z,53.20
2022-08-30T11:29:12.611Z,53.00
2022-08-30T11:31:39.057Z,52.70
2022-08-30T11:34:07.174Z,53.40
2022-08-30T11:36:37.305Z,53.40
2022-08-30T11:39:04.599Z,53.80
2022-08-30T11:41:32.241Z,53.20
2022-08-30T11:43:58.703Z,53.40
2022-08-30T11:46:25.192Z,53.20
2022-08-30T11:48:54.299Z,52.60
2022-08-30T11:51:22.087Z,52.30
2022-08-30T11:53:48.541Z,52.30
2022-08-30T11:56:15.007Z,52.30
2022-08-30T11:58:44.111Z,52.20
2022-08-30T12:01:31.833Z,53.30
2022-08-30T12:03:57.120Z,53.50
2022-08-30T12:06:23.584Z,52.80
2022-08-30T12:11:20.717Z,53.40
2022-08-30T12:16:14.236Z,53.50
2022-08-30T12:18:40.802Z,53.40
2022-08-30T12:21:07.849Z,53.40
2022-08-30T12:23:34.341Z,52.30
2022-08-30T12:26:01.061Z,52.10
2022-08-30T12:28:27.500Z,51.40
2022-08-30T12:33:20.933Z,52.80
2022-08-30T12:35:48.039Z,52.40
2022-08-30T12:40:43.286Z,52.40
2022-08-30T12:43:09.818Z,53.10
2022-08-30T12:45:36.674Z,52.30
2022-08-30T12:48:03.273Z,51.40
2022-08-30T12:50:29.998Z,52.40
2022-08-30T12:52:56.559Z,52.00
2022-08-30T12:55:23.030Z,51.60
2022-08-30T12:57:49.466Z,52.20
2022-08-30T13:00:16.254Z,51.30
2022-08-30T13:02:42.718Z,52.20
2022-08-30T13:07:36.182Z,52.30
2022-08-30T13:10:02.646Z,52.00
2022-08-30T13:12:29.113Z,51.60
2022-08-30T13:14:56.780Z,51.40
2022-08-30T13:17:23.231Z,51.40
2022-08-30T13:22:20.248Z,52.30
2022-08-30T13:24:46.828Z,52.10
2022-08-30T13:27:13.273Z,52.20
2022-08-30T13:29:39.714Z,51.90
2022-08-30T13:32:06.169Z,52.30
2022-08-30T13:34:32.620Z,52.50
2022-08-30T13:36:59.079Z,52.50
2022-08-30T13:39:25.538Z,53.20
2022-08-30T13:41:52.045Z,53.10
2022-08-30T13:44:18.520Z,53.70
2022-08-30T13:52:19.900Z,53.40
2022-08-30T13:54:49.831Z,52.40
2022-08-30T13:57:16.703Z,53.90
2022-08-30T13:59:43.285Z,53.70
2022-08-30T14:07:14.113Z,53.50
2022-08-30T14:09:43.398Z,53.50
2022-08-30T14:14:42.978Z,53.90
2022-08-30T14:19:36.876Z,53.10
2022-08-30T14:22:03.371Z,53.90
2022-08-30T14:24:29.851Z,53.90
2022-08-30T14:26:56.290Z,53.80
2022-08-30T14:29:22.746Z,53.80
2022-08-30T14:31:50.869Z,53.70
2022-08-30T14:34:17.379Z,53.10
2022-08-30T14:36:43.822Z,52.90
2022-08-30T14:39:10.301Z,54.10
2022-08-30T14:41:41.288Z,53.10
2022-08-30T14:44:09.572Z,53.40
2022-08-30T14:46:37.276Z,54.10
2022-08-30T14:49:03.752Z,52.90
2022-08-30T14:51:32.350Z,53.00
2022-08-30T14:54:00.110Z,53.50
2022-08-30T14:56:26.552Z,53.60
2022-08-30T14:58:52.985Z,52.90
2022-08-30T15:01:19.485Z,53.70
2022-08-30T15:03:46.046Z,53.90
2022-08-30T15:06:12.495Z,54.50
2022-08-30T15:08:39.386Z,53.50
2022-08-30T15:11:05.964Z,54.20
2022-08-30T15:13:33.318Z,53.80
2022-08-30T15:15:59.824Z,53.80
2022-08-30T15:20:53.573Z,54.00
2022-08-30T15:23:22.815Z,54.00
2022-08-30T15:25:51.205Z,53.10
2022-08-30T15:30:44.959Z,53.80
2022-08-30T15:33:11.402Z,53.30
2022-08-30T15:35:37.851Z,53.90
2022-08-30T15:38:04.304Z,53.60
2022-08-30T15:40:30.769Z,54.00
2022-08-30T15:42:57.265Z,53.90
2022-08-30T15:45:23.766Z,53.30
2022-08-30T15:47:50.216Z,53.90
2022-08-30T15:50:16.684Z,52.90
2022-08-30T15:52:43.161Z,53.80
2022-08-30T15:55:09.614Z,53.90
2022-08-30T15:57:36.085Z,53.90
2022-08-30T16:00:02.537Z,53.80
2022-08-30T16:02:33.059Z,54.00
2022-08-30T16:05:01.558Z,53.40
2022-08-30T16:09:54.991Z,54.00
2022-08-30T16:12:23.682Z,53.80
2022-08-30T16:14:50.391Z,53.50
2022-08-30T16:17:16.829Z,53.60
2022-08-30T16:19:44.707Z,54.10
2022-08-30T16:22:11.146Z,54.30
2022-08-30T16:24:37.596Z,54.90
2022-08-30T16:27:04.044Z,54.70
2022-08-30T16:29:30.511Z,55.00
2022-08-30T16:31:56.974Z,54.40
2022-08-30T16:34:24.548Z,54.70
2022-08-30T16:36:52.397Z,54.80
2022-08-30T16:39:19.858Z,55.10
2022-08-30T16:41:46.852Z,55.00
2022-08-30T16:44:15.931Z,55.50
2022-08-30T16:46:52.936Z,55.30
2022-08-30T16:51:47.319Z,55.20
2022-08-30T16:56:40.741Z,55.10
2022-08-30T16:59:11.121Z,55.20
2022-08-30T17:01:37.979Z,55.30
2022-08-30T17:04:04.462Z,54.30
2022-08-30T17:06:32.132Z,55.40
2022-08-30T17:08:58.664Z,54.20
2022-08-30T17:11:25.120Z,55.20
2022-08-30T17:13:51.616Z,55.10
2022-08-30T17:16:18.140Z,55.70
2022-08-30T17:21:20.844Z,55.20
2022-08-30T17:23:49.239Z,54.60
2022-08-30T17:26:15.858Z,55.80
2022-08-30T17:28:42.311Z,55.60
2022-08-30T17:31:10.725Z,55.40
2022-08-30T17:33:37.189Z,55.00
2022-08-30T17:36:05.385Z,54.40
2022-08-30T17:38:31.856Z,54.80
2022-08-30T17:40:58.312Z,54.50
2022-08-30T17:43:24.762Z,55.80
2022-08-30T17:45:51.208Z,55.50
2022-08-30T17:48:17.804Z,56.00
2022-08-30T17:50:44.352Z,56.00
2022-08-30T17:53:10.874Z,55.40
2022-08-30T17:55:37.344Z,55.90
2022-08-30T17:58:03.979Z,55.70
2022-08-30T18:00:30.429Z,55.40
2022-08-30T18:02:56.921Z,54.70
2022-08-30T18:05:24.612Z,55.80
2022-08-30T18:07:51.917Z,55.90
2022-08-30T18:10:18.390Z,54.50
2022-08-30T18:12:44.862Z,55.50
2022-08-30T18:17:59.019Z,55.50
2022-08-30T18:20:26.486Z,55.10
2022-08-30T18:22:53.366Z,55.70
2022-08-30T18:25:20.120Z,55.80
2022-08-30T18:27:57.157Z,55.70
2022-08-30T18:32:56.456Z,55.40
2022-08-30T18:37:50.805Z,54.90
2022-08-30T18:40:19.134Z,56.10
2022-08-30T18:42:45.628Z,55.90
2022-08-30T18:45:15.537Z,56.10
2022-08-30T18:50:09.329Z,55.20
2022-08-30T18:52:35.824Z,54.80
2022-08-30T18:55:02.262Z,56.20
2022-08-30T18:57:28.697Z,56.00
2022-08-30T18:59:57.541Z,55.80
2022-08-30T19:02:27.717Z,55.80
2022-08-30T19:04:54.314Z,55.50
2022-08-30T19:07:20.773Z,56.50
2022-08-30T19:09:47.271Z,56.70
2022-08-30T19:14:40.730Z,56.20
2022-08-30T19:17:07.713Z,56.40
2022-08-30T19:19:34.996Z,56.00
2022-08-30T19:24:30.835Z,55.60
2022-08-30T19:26:58.709Z,55.20
2022-08-30T19:29:25.167Z,56.20
2022-08-30T19:31:52.743Z,56.00
2022-08-30T19:34:19.194Z,56.20
2022-08-30T19:39:12.700Z,55.90
2022-08-30T19:41:39.161Z,55.90
2022-08-30T19:44:05.605Z,56.00
2022-08-30T19:46:32.738Z,55.70
2022-08-30T19:48:59.198Z,55.10
2022-08-30T19:51:25.651Z,55.70
2022-08-30T19:53:53.086Z,55.80
2022-08-30T19:56:25.176Z,55.70
2022-08-30T19:58:51.674Z,55.50
2022-08-30T20:01:32.320Z,55.40
2022-08-30T20:04:04.580Z,55.60
2022-08-30T20:06:31.040Z,55.60
2022-08-30T20:08:59.796Z,54.70
2022-08-30T20:11:27.010Z,55.10
2022-08-30T20:16:20.505Z,55.60
2022-08-30T20:18:46.961Z,54.70
2022-08-30T20:21:13.829Z,55.40
2022-08-30T20:23:40.286Z,55.90
2022-08-30T20:24:26.633Z,55.80
2022-08-30T20:26:07.011Z,55.70
2022-08-30T20:28:33.487Z,55.70
2022-08-30T20:31:00.050Z,55.30
2022-08-30T20:33:26.627Z,54.90
2022-08-30T20:35:53.065Z,55.70
2022-08-30T20:38:19.599Z,55.90
2022-08-30T20:40:46.125Z,55.80
2022-08-30T20:43:12.618Z,55.80
2022-08-30T20:45:39.075Z,54.90
2022-08-30T20:48:05.551Z,55.60
2022-08-30T20:50:32.017Z,55.60
2022-08-30T20:52:58.458Z,55.70
2022-08-30T20:55:24.899Z,55.30
2022-08-30T20:57:51.403Z,55.80
2022-08-30T21:00:17.845Z,55.10
2022-08-30T21:02:46.848Z,54.90
2022-08-30T21:05:14.854Z,54.50
2022-08-30T21:10:08.283Z,54.90
2022-08-30T21:12:34.731Z,54.90
2022-08-30T21:15:10.878Z,55.40
2022-08-30T21:17:47.591Z,54.70
2022-08-30T21:22:41.035Z,55.80
2022-08-30T21:25:07.479Z,55.90
2022-08-30T21:27:33.917Z,55.00
2022-08-30T21:30:00.349Z,55.70
2022-08-30T21:32:26.784Z,56.10
2022-08-30T21:34:53.236Z,55.80
2022-08-30T21:37:19.675Z,55.80
2022-08-30T21:39:46.134Z,56.00
2022-08-30T21:44:39.577Z,55.50
2022-08-30T21:47:06.014Z,56.10
2022-08-30T21:49:32.523Z,55.00
2022-08-30T21:54:31.262Z,55.10
2022-08-30T21:56:58.026Z,55.90
2022-08-30T21:59:24.464Z,54.90
2022-08-30T22:01:50.991Z,54.80
2022-08-30T22:04:17.482Z,55.50
2022-08-30T22:06:43.942Z,55.80
2022-08-30T22:09:10.384Z,54.90
2022-08-30T22:11:36.836Z,55.90
2022-08-30T22:14:03.279Z,56.20
2022-08-30T22:18:57.104Z,55.80
2022-08-30T22:21:23.544Z,56.10
2022-08-30T22:23:50.014Z,55.70
2022-08-30T22:26:16.477Z,55.80
2022-08-30T22:28:42.920Z,55.80
2022-08-30T22:31:09.358Z,55.70
2022-08-30T22:33:35.868Z,55.90
2022-08-30T22:36:02.298Z,54.70
2022-08-30T22:38:28.738Z,54.80
2022-08-30T22:40:55.190Z,56.00
2022-08-30T22:43:21.632Z,55.70
2022-08-30T22:45:48.143Z,55.20
2022-08-30T22:48:14.650Z,55.90
2022-08-30T22:50:41.089Z,55.90
2022-08-30T22:55:34.517Z,55.00
2022-08-30T22:58:00.962Z,54.70
2022-08-30T23:00:27.402Z,55.40
2022-08-30T23:02:53.912Z,55.70
2022-08-30T23:05:20.404Z,55.90
2022-08-30T23:07:46.856Z,55.10
2022-08-30T23:10:13.301Z,55.90
2022-08-30T23:12:39.751Z,55.80
2022-08-30T23:17:39.749Z,55.20
2022-08-30T23:22:33.479Z,55.80
2022-08-30T23:24:59.932Z,55.80
2022-08-30T23:27:26.368Z,55.20
2022-08-30T23:29:52.824Z,55.40
2022-08-30T23:32:19.261Z,55.10
2022-08-30T23:34:45.697Z,55.40
2022-08-30T23:37:12.144Z,54.70
2022-08-30T23:39:38.593Z,56.00
2022-08-30T23:42:05.033Z,54.60
2022-08-30T23:44:31.484Z,55.10
2022-08-30T23:46:57.916Z,55.80
2022-08-30T23:49:24.362Z,54.80
2022-08-30T23:51:50.822Z,55.50
2022-08-30T23:54:17.263Z,55.80
2022-08-30T23:56:43.710Z,55.10
2022-08-30T23:59:10.149Z,55.10
